createdAt,value
2023-01-30T00:01:28.077Z,53.90
2023-01-30T00:03:00.147Z,55.72
2023-01-30T00:04:32.211Z,57.93
2023-01-30T00:06:04.562Z,45.53
2023-01-30T00:07:36.601Z,55.97
2023-01-30T00:09:12.897Z,54.17
2023-01-30T00:10:45.545Z,54.28
2023-01-30T00:12:17.513Z,55.70
2023-01-30T00:13:50.782Z,50.83
2023-01-30T00:15:22.755Z,53.45
2023-01-30T00:16:55.562Z,50.77
2023-01-30T00:18:27.507Z,55.00
2023-01-30T00:19:59.554Z,56.47
2023-01-30T00:21:31.503Z,53.40
2023-01-30T00:23:03.715Z,54.85
2023-01-30T00:24:37.712Z,53.97
2023-01-30T00:26:10.312Z,53.95
2023-01-30T00:27:43.460Z,57.10
2023-01-30T00:29:15.426Z,51.10
2023-01-30T00:30:54.612Z,58.23
2023-01-30T00:32:28.322Z,56.40
2023-01-30T00:34:02.672Z,52.63
2023-01-30T00:35:34.962Z,51.42
2023-01-30T00:37:08.639Z,51.08
2023-01-30T00:38:40.771Z,50.88
2023-01-30T00:40:13.008Z,53.50
2023-01-30T00:42:03.644Z,59.78
2023-01-30T00:43:54.536Z,55.63
2023-01-30T00:45:45.678Z,55.90
2023-01-30T00:47:17.756Z,56.78
2023-01-30T00:48:50.053Z,47.92
2023-01-30T00:50:42.760Z,54.30
2023-01-30T00:52:17.367Z,55.05
2023-01-30T00:53:49.385Z,53.10
2023-01-30T00:55:21.398Z,50.25
2023-01-30T00:56:53.415Z,53.67
2023-01-30T00:58:25.853Z,52.53
2023-01-30T00:59:57.909Z,50.08
2023-01-30T01:01:29.948Z,49.97
2023-01-30T01:03:02.308Z,52.47
2023-01-30T01:04:43.636Z,52.20
2023-01-30T01:06:16.517Z,49.53
2023-01-30T01:07:49.064Z,51.63
2023-01-30T01:09:21.066Z,52.90
2023-01-30T01:10:53.124Z,49.58
2023-01-30T01:12:25.263Z,49.72
2023-01-30T01:13:59.730Z,52.88
2023-01-30T01:15:31.889Z,48.05
2023-01-30T01:17:05.162Z,49.28
2023-01-30T01:18:37.361Z,52.03
2023-01-30T01:20:13.495Z,46.85
2023-01-30T01:21:45.677Z,52.40
2023-01-30T01:23:17.837Z,46.97
2023-01-30T01:24:50.078Z,49.25
2023-01-30T01:26:22.381Z,48.27
2023-01-30T01:27:55.323Z,47.08
2023-01-30T01:30:59.532Z,48.90
2023-01-30T01:32:32.816Z,48.45
2023-01-30T01:34:04.938Z,46.92
2023-01-30T01:35:41.385Z,50.55
2023-01-30T01:37:13.478Z,50.97
2023-01-30T01:38:47.750Z,47.60
2023-01-30T01:40:38.964Z,47.42
2023-01-30T01:42:12.335Z,46.47
2023-01-30T01:44:14.590Z,50.50
2023-01-30T01:45:48.279Z,47.05
2023-01-30T01:47:22.897Z,52.10
2023-01-30T01:48:57.157Z,50.60
2023-01-30T01:50:40.112Z,50.08
2023-01-30T01:52:15.703Z,49.00
2023-01-30T01:53:59.137Z,51.53
2023-01-30T01:55:31.789Z,50.20
2023-01-30T01:57:07.295Z,54.75
2023-01-30T01:58:48.201Z,48.05
2023-01-30T02:00:21.389Z,53.55
2023-01-30T02:01:56.816Z,51.65
2023-01-30T02:03:32.622Z,49.78
2023-01-30T02:05:06.889Z,52.58
2023-01-30T02:06:40.230Z,50.65
2023-01-30T02:08:22.369Z,51.63
2023-01-30T02:09:56.467Z,51.63
2023-01-30T02:11:51.384Z,43.47
2023-01-30T02:13:23.627Z,44.78
2023-01-30T02:14:57.981Z,54.30
2023-01-30T02:16:30.013Z,51.90
2023-01-30T02:18:02.566Z,47.23
2023-01-30T02:19:59.910Z,50.25
2023-01-30T02:21:43.794Z,50.63
2023-01-30T02:23:23.285Z,48.05
2023-01-30T02:25:32.407Z,50.55
2023-01-30T02:27:32.226Z,49.40
2023-01-30T02:29:25.782Z,48.15
2023-01-30T02:33:07.625Z,45.78
2023-01-30T02:34:51.108Z,49.47
2023-01-30T02:36:48.989Z,52.80
2023-01-30T02:38:34.869Z,49.63
2023-01-30T02:40:44.420Z,50.20
2023-01-30T02:42:31.131Z,48.28
2023-01-30T02:44:17.008Z,55.13
2023-01-30T02:45:59.544Z,57.35
2023-01-30T02:47:35.368Z,50.78
2023-01-30T02:49:10.915Z,54.60
2023-01-30T02:50:51.864Z,54.40
2023-01-30T02:52:24.824Z,51.03
2023-01-30T02:53:56.989Z,53.22
2023-01-30T02:55:29.709Z,54.78
2023-01-30T02:57:02.351Z,50.78
2023-01-30T02:58:44.171Z,48.70
2023-01-30T03:00:42.823Z,49.38
2023-01-30T03:02:14.897Z,52.70
2023-01-30T03:04:32.139Z,50.80
2023-01-30T03:06:16.678Z,49.53
2023-01-30T03:08:32.730Z,52.20
2023-01-30T03:10:09.119Z,51.70
2023-01-30T03:11:51.920Z,50.38
2023-01-30T03:13:35.320Z,59.20
2023-01-30T03:15:16.664Z,48.20
2023-01-30T03:16:50.118Z,55.15
2023-01-30T03:18:22.479Z,53.55
2023-01-30T03:19:55.578Z,49.00
2023-01-30T03:21:27.624Z,54.20
2023-01-30T03:22:59.780Z,51.75
2023-01-30T03:24:31.839Z,47.13
2023-01-30T03:26:09.045Z,56.55
2023-01-30T03:27:41.486Z,49.15
2023-01-30T03:29:22.265Z,52.50
2023-01-30T03:30:55.393Z,44.92
2023-01-30T03:32:27.803Z,52.58
2023-01-30T03:34:01.274Z,48.08
2023-01-30T03:35:34.068Z,47.15
2023-01-30T03:37:07.391Z,48.33
2023-01-30T03:38:41.152Z,57.35
2023-01-30T03:40:14.556Z,52.55
2023-01-30T03:41:46.805Z,49.97
2023-01-30T03:43:21.740Z,44.22
2023-01-30T03:44:56.847Z,58.17
2023-01-30T03:46:29.024Z,51.83
2023-01-30T03:48:01.099Z,60.58
2023-01-30T03:49:33.156Z,52.43
2023-01-30T03:51:05.510Z,48.50
2023-01-30T03:52:37.683Z,48.03
2023-01-30T03:54:14.013Z,49.13
2023-01-30T03:55:46.086Z,53.05
2023-01-30T03:57:18.215Z,51.30
2023-01-30T03:58:50.458Z,54.63
2023-01-30T04:00:26.863Z,55.80
2023-01-30T04:02:01.732Z,50.17
2023-01-30T04:03:34.367Z,55.65
2023-01-30T04:05:06.744Z,52.95
2023-01-30T04:06:38.891Z,48.75
2023-01-30T04:08:11.665Z,48.72
2023-01-30T04:09:43.876Z,56.15
2023-01-30T04:11:16.875Z,56.75
2023-01-30T04:12:49.201Z,56.03
2023-01-30T04:14:21.691Z,55.95
2023-01-30T04:16:21.586Z,54.05
2023-01-30T04:18:18.389Z,54.63
2023-01-30T04:19:56.103Z,53.15
2023-01-30T04:21:28.219Z,40.67
2023-01-30T04:23:00.888Z,54.55
2023-01-30T04:24:32.997Z,54.63
2023-01-30T04:26:06.383Z,50.60
2023-01-30T04:27:41.612Z,53.47
2023-01-30T04:29:20.020Z,57.58
2023-01-30T04:30:55.093Z,55.97
2023-01-30T04:32:45.151Z,56.55
2023-01-30T04:34:18.612Z,51.00
2023-01-30T04:36:00.338Z,55.58
2023-01-30T04:37:32.815Z,56.17
2023-01-30T04:39:05.033Z,62.47
2023-01-30T04:40:37.699Z,60.33
2023-01-30T04:42:09.882Z,58.92
2023-01-30T04:43:50.318Z,58.67
2023-01-30T04:45:32.101Z,56.97
2023-01-30T04:47:04.160Z,54.35
2023-01-30T04:48:36.334Z,52.83
2023-01-30T04:50:09.665Z,60.53
2023-01-30T04:51:45.035Z,57.28
2023-01-30T04:53:17.727Z,51.63
2023-01-30T04:54:49.871Z,57.78
2023-01-30T04:56:23.175Z,61.03
2023-01-30T04:57:55.850Z,58.63
2023-01-30T04:59:30.008Z,60.75
2023-01-30T05:01:14.445Z,61.38
2023-01-30T05:02:46.482Z,57.53
2023-01-30T05:04:18.624Z,54.53
2023-01-30T05:05:50.836Z,54.58
2023-01-30T05:07:22.907Z,55.83
2023-01-30T05:08:56.539Z,53.55
2023-01-30T05:10:28.724Z,55.42
2023-01-30T05:12:00.959Z,56.70
2023-01-30T05:13:33.543Z,44.65
2023-01-30T05:15:07.050Z,42.42
2023-01-30T05:16:39.134Z,52.15
2023-01-30T05:18:13.611Z,52.80
2023-01-30T05:19:45.782Z,46.97
2023-01-30T05:21:22.851Z,46.47
2023-01-30T05:22:54.911Z,43.42
2023-01-30T05:24:26.967Z,41.10
2023-01-30T05:25:59.152Z,48.03
2023-01-30T05:27:31.159Z,40.38
2023-01-30T05:29:03.388Z,48.17
2023-01-30T05:30:35.395Z,46.70
2023-01-30T05:32:18.872Z,43.53
2023-01-30T05:33:52.641Z,42.47
2023-01-30T05:35:26.033Z,49.80
2023-01-30T05:36:58.118Z,48.28
2023-01-30T05:38:30.329Z,46.50
2023-01-30T05:40:02.357Z,46.25
2023-01-30T05:41:37.215Z,46.95
2023-01-30T05:43:11.333Z,53.03
2023-01-30T05:44:43.376Z,47.55
2023-01-30T05:46:18.558Z,46.92
2023-01-30T05:47:53.585Z,49.72
2023-01-30T05:49:37.117Z,48.42
2023-01-30T05:51:29.380Z,45.97
2023-01-30T05:53:06.506Z,45.90
2023-01-30T05:54:55.177Z,50.35
2023-01-30T05:56:27.437Z,52.67
2023-01-30T05:58:17.056Z,51.80
2023-01-30T05:59:49.126Z,48.30
2023-01-30T06:01:22.338Z,44.45
2023-01-30T06:02:54.717Z,54.30
2023-01-30T06:04:27.150Z,48.65
2023-01-30T06:05:59.352Z,50.53
2023-01-30T06:07:32.255Z,49.88
2023-01-30T06:10:39.821Z,57.65
2023-01-30T06:12:12.080Z,51.90
2023-01-30T06:13:44.665Z,53.28
2023-01-30T06:15:17.230Z,53.25
2023-01-30T06:16:49.698Z,51.28
2023-01-30T06:18:24.240Z,54.38
2023-01-30T06:20:02.131Z,50.53
2023-01-30T06:21:34.741Z,57.05
2023-01-30T06:23:10.291Z,53.83
2023-01-30T06:24:42.985Z,57.50
2023-01-30T06:26:19.074Z,57.30
2023-01-30T06:27:51.649Z,56.83
2023-01-30T06:29:28.200Z,49.92
2023-01-30T06:31:12.036Z,51.47
2023-01-30T06:32:45.623Z,53.63
2023-01-30T06:34:17.679Z,53.70
2023-01-30T06:35:51.223Z,50.77
2023-01-30T06:37:23.355Z,51.22
2023-01-30T06:38:58.411Z,51.88
2023-01-30T06:40:32.442Z,51.50
2023-01-30T06:42:04.820Z,52.40
2023-01-30T06:43:36.970Z,50.65
2023-01-30T06:45:11.487Z,53.55
2023-01-30T06:46:43.656Z,52.15
2023-01-30T06:48:15.869Z,50.47
2023-01-30T06:49:49.698Z,43.35
2023-01-30T06:51:24.445Z,49.95
2023-01-30T06:53:03.037Z,58.22
2023-01-30T06:54:35.305Z,48.67
2023-01-30T06:56:07.683Z,49.75
2023-01-30T06:57:39.922Z,56.30
2023-01-30T06:59:12.024Z,52.45
2023-01-30T07:00:45.277Z,47.70
2023-01-30T07:02:17.935Z,52.25
2023-01-30T07:03:50.054Z,49.25
2023-01-30T07:05:23.296Z,46.72
2023-01-30T07:06:55.560Z,54.58
2023-01-30T07:08:58.778Z,49.03
2023-01-30T07:10:32.745Z,43.72
2023-01-30T07:12:08.177Z,43.58
2023-01-30T07:13:40.358Z,43.25
2023-01-30T07:15:20.001Z,47.80
2023-01-30T07:16:53.442Z,38.33
2023-01-30T07:18:25.751Z,37.72
2023-01-30T07:19:58.637Z,44.58
2023-01-30T07:23:05.461Z,40.10
2023-01-30T07:24:40.126Z,43.53
2023-01-30T07:26:22.000Z,47.83
2023-01-30T07:28:02.328Z,45.13
2023-01-30T07:29:39.496Z,37.45
2023-01-30T07:31:11.868Z,36.42
2023-01-30T07:32:56.090Z,37.70
2023-01-30T07:34:30.690Z,41.17
2023-01-30T07:36:07.795Z,44.47
2023-01-30T07:37:43.013Z,34.88
2023-01-30T07:39:26.694Z,33.50
2023-01-30T07:40:59.092Z,40.40
2023-01-30T07:42:31.498Z,38.88
2023-01-30T07:44:37.323Z,36.05
2023-01-30T07:46:09.562Z,37.47
2023-01-30T07:47:41.940Z,39.70
2023-01-30T07:49:17.649Z,31.25
2023-01-30T07:50:53.122Z,60.30
2023-01-30T07:52:36.841Z,28.90
2023-01-30T07:54:15.699Z,34.08
2023-01-30T07:55:50.389Z,25.75
2023-01-30T07:57:22.856Z,33.53
2023-01-30T07:58:56.142Z,28.42
2023-01-30T08:00:36.725Z,30.80
2023-01-30T08:02:13.468Z,26.83
2023-01-30T08:03:57.627Z,25.40
2023-01-30T08:05:32.751Z,25.98
2023-01-30T08:07:08.178Z,20.40
2023-01-30T08:08:46.544Z,23.95
2023-01-30T08:10:29.223Z,26.38
2023-01-30T08:12:01.366Z,29.52
2023-01-30T08:13:35.201Z,26.70
2023-01-30T08:15:08.945Z,20.35
2023-01-30T08:16:41.084Z,24.38
2023-01-30T08:18:13.231Z,22.90
2023-01-30T08:19:46.378Z,16.83
2023-01-30T10:05:06.088Z,17.00
2023-01-30T10:31:43.891Z,12.02
2023-01-30T10:45:28.043Z,19.42
2023-01-30T10:47:47.503Z,19.98
2023-01-30T10:52:13.199Z,16.25
2023-01-30T10:59:46.906Z,18.65
2023-01-30T11:06:00.155Z,14.20
2023-01-30T11:07:03.139Z,13.93
2023-01-30T11:09:07.374Z,14.07
2023-01-30T11:10:48.429Z,18.35
2023-01-30T11:13:51.801Z,11.45
2023-01-30T11:15:38.154Z,12.82
2023-01-30T11:20:26.880Z,12.25
2023-01-30T11:24:24.786Z,16.42
2023-01-30T11:24:59.290Z,9.43
2023-01-30T11:26:48.178Z,13.30
2023-01-30T11:28:40.034Z,10.27
2023-01-30T11:30:30.117Z,14.48
2023-01-30T11:35:42.477Z,14.38
2023-01-30T11:37:46.604Z,11.27
2023-01-30T11:39:20.349Z,7.90
2023-01-30T11:42:13.098Z,11.48
2023-01-30T11:43:55.765Z,9.50
2023-01-30T11:46:07.217Z,13.90
2023-01-30T11:49:09.097Z,13.18
2023-01-30T11:50:52.903Z,13.38
2023-01-30T11:52:37.036Z,14.13
2023-01-30T11:54:18.570Z,18.75
2023-01-30T11:56:45.561Z,15.50
2023-01-30T11:58:30.323Z,13.82
2023-01-30T12:00:25.540Z,12.57
2023-01-30T12:03:09.300Z,16.92
2023-01-30T12:04:50.443Z,14.27
2023-01-30T12:06:38.045Z,21.65
2023-01-30T12:09:01.303Z,20.15
2023-01-30T12:10:54.242Z,16.98
2023-01-30T12:12:55.067Z,8.65
2023-01-30T12:14:59.580Z,17.90
2023-01-30T12:16:50.056Z,16.65
2023-01-30T12:19:48.609Z,17.00
2023-01-30T12:21:44.453Z,15.13
2023-01-30T12:23:30.193Z,15.43
2023-01-30T12:25:31.506Z,14.13
2023-01-30T12:27:27.523Z,13.82
2023-01-30T12:29:25.261Z,11.82
2023-01-30T12:31:10.860Z,12.75
2023-01-30T12:32:43.052Z,12.90
2023-01-30T12:34:38.400Z,14.10
2023-01-30T12:37:06.321Z,15.05
2023-01-30T12:38:58.565Z,21.75
2023-01-30T12:40:44.153Z,21.15
2023-01-30T12:42:34.931Z,10.95
2023-01-30T12:44:51.638Z,19.55
2023-01-30T12:46:43.046Z,19.38
2023-01-30T12:48:44.291Z,20.27
2023-01-30T12:50:56.509Z,14.98
2023-01-30T12:53:35.429Z,12.73
2023-01-30T12:55:27.657Z,18.42
2023-01-30T12:57:37.044Z,19.63
2023-01-30T12:59:48.676Z,14.45
2023-01-30T13:01:59.905Z,19.02
2023-01-30T13:04:04.585Z,20.70
2023-01-30T13:06:10.525Z,20.08
2023-01-30T13:08:04.175Z,14.90
2023-01-30T13:09:57.828Z,17.50
2023-01-30T13:11:45.023Z,15.10
2023-01-30T13:13:32.805Z,21.23
2023-01-30T13:15:17.150Z,14.43
2023-01-30T13:16:54.587Z,21.00
2023-01-30T13:18:39.851Z,16.05
2023-01-30T13:20:15.760Z,15.73
2023-01-30T13:22:23.196Z,17.88
2023-01-30T13:24:17.570Z,24.83
2023-01-30T13:26:09.224Z,12.30
2023-01-30T13:27:48.685Z,22.10
2023-01-30T13:29:36.981Z,21.05
2023-01-30T13:31:22.686Z,25.92
2023-01-30T13:33:09.204Z,18.00
2023-01-30T13:34:44.990Z,16.85
2023-01-30T13:36:25.314Z,19.58
2023-01-30T13:37:57.913Z,15.30
2023-01-30T13:39:50.760Z,19.65
2023-01-30T13:41:27.909Z,14.68
2023-01-30T13:43:16.047Z,15.88
2023-01-30T13:44:52.159Z,17.50
2023-01-30T13:46:32.277Z,17.23
2023-01-30T13:48:22.666Z,19.50
2023-01-30T13:50:24.324Z,15.48
2023-01-30T13:52:19.225Z,12.48
2023-01-30T13:54:00.642Z,14.57
2023-01-30T13:55:43.324Z,23.75
2023-01-30T13:57:57.122Z,21.08
2023-01-30T14:00:11.085Z,15.95
2023-01-30T14:02:14.968Z,13.57
2023-01-30T14:07:22.593Z,19.92
2023-01-30T14:11:42.810Z,21.52
2023-01-30T14:11:54.541Z,15.13
2023-01-30T14:17:10.430Z,17.40
2023-01-30T14:24:34.256Z,18.13
2023-01-30T14:29:41.781Z,25.25
2023-01-30T14:35:01.995Z,21.30
2023-01-30T14:36:58.710Z,20.73
2023-01-30T14:38:58.216Z,19.98
2023-01-30T14:40:55.297Z,16.75
2023-01-30T14:43:15.077Z,11.07
2023-01-30T14:46:17.684Z,11.68
2023-01-30T14:51:09.400Z,23.50
2023-01-30T14:52:55.195Z,15.73
2023-01-30T14:57:20.097Z,20.45
2023-01-30T14:59:13.530Z,17.45
2023-01-30T15:00:45.591Z,16.85
2023-01-30T15:02:26.588Z,19.98
2023-01-30T15:03:58.647Z,18.92
2023-01-30T15:05:44.263Z,14.00
2023-01-30T15:07:39.080Z,23.50
2023-01-30T15:09:17.727Z,18.52
2023-01-30T15:10:58.524Z,20.95
2023-01-30T15:12:33.199Z,20.20
2023-01-30T15:14:12.720Z,20.58
2023-01-30T15:15:53.342Z,24.45
2023-01-30T15:18:07.238Z,31.63
2023-01-30T15:20:16.481Z,20.63
2023-01-30T15:21:57.567Z,20.00
2023-01-30T15:24:31.580Z,25.33
2023-01-30T15:26:52.422Z,19.83
2023-01-30T15:28:52.919Z,16.27
2023-01-30T15:31:02.761Z,17.85
2023-01-30T15:32:38.564Z,22.38
2023-01-30T15:34:22.761Z,18.63
2023-01-30T15:35:54.751Z,22.40
2023-01-30T15:37:30.620Z,25.57
2023-01-30T15:39:07.346Z,22.17
2023-01-30T15:40:40.887Z,20.67
2023-01-30T15:42:15.184Z,21.55
2023-01-30T15:44:15.762Z,21.38
2023-01-30T15:46:26.752Z,15.18
2023-01-30T15:48:07.939Z,16.23
2023-01-30T15:49:52.181Z,19.17
2023-01-30T15:51:27.557Z,19.17
2023-01-30T15:53:02.111Z,18.85
2023-01-30T15:54:34.633Z,26.55
2023-01-30T15:56:11.678Z,21.13
2023-01-30T15:57:48.237Z,16.90
2023-01-30T15:59:48.735Z,23.15
2023-01-30T16:01:24.830Z,27.50
2023-01-30T16:03:03.113Z,24.83
2023-01-30T16:04:35.199Z,18.05
2023-01-30T16:06:07.913Z,22.13
2023-01-30T16:07:39.948Z,20.13
2023-01-30T16:09:25.569Z,17.07
2023-01-30T16:10:58.260Z,16.95
2023-01-30T16:12:31.180Z,21.33
2023-01-30T16:15:50.850Z,20.67
2023-01-30T16:17:22.902Z,21.02
2023-01-30T16:19:22.498Z,15.88
2023-01-30T16:21:02.050Z,16.35
2023-01-30T16:22:35.236Z,21.77
2023-01-30T16:24:14.485Z,21.73
2023-01-30T16:25:47.610Z,21.10
2023-01-30T16:27:33.135Z,24.92
2023-01-30T16:29:07.284Z,23.15
2023-01-30T16:30:42.857Z,20.27
2023-01-30T16:32:15.129Z,18.67
2023-01-30T16:33:53.120Z,13.25
2023-01-30T16:35:27.270Z,19.55
2023-01-30T16:37:08.660Z,19.63
2023-01-30T16:38:48.144Z,22.05
2023-01-30T16:40:43.919Z,16.67
2023-01-30T16:42:27.958Z,18.60
2023-01-30T16:44:20.782Z,21.77
2023-01-30T16:45:52.964Z,21.97
2023-01-30T16:47:26.305Z,19.00
2023-01-30T16:49:03.157Z,20.63
2023-01-30T16:50:35.122Z,22.15
2023-01-30T16:52:26.737Z,24.97
2023-01-30T16:54:02.946Z,16.42
2023-01-30T16:55:40.221Z,16.40
2023-01-30T16:57:40.652Z,19.88
2023-01-30T16:59:20.049Z,22.58
2023-01-30T17:00:52.072Z,20.40
2023-01-30T17:02:38.283Z,18.00
2023-01-30T17:04:19.033Z,23.48
2023-01-30T17:05:51.362Z,16.55
2023-01-30T17:07:38.173Z,17.10
2023-01-30T17:09:46.105Z,25.60
2023-01-30T17:11:44.345Z,18.48
2023-01-30T17:13:31.211Z,19.35
2023-01-30T17:15:14.721Z,24.75
2023-01-30T17:17:07.767Z,16.27
2023-01-30T17:18:39.692Z,24.88
2023-01-30T17:20:13.336Z,16.70
2023-01-30T17:21:53.171Z,26.88
2023-01-30T17:23:33.482Z,31.42
2023-01-30T17:25:11.711Z,21.25
2023-01-30T17:26:44.188Z,18.25
2023-01-30T17:28:21.400Z,17.75
2023-01-30T17:29:53.425Z,19.88
2023-01-30T17:31:25.464Z,16.38
2023-01-30T17:32:57.561Z,20.42
2023-01-30T17:34:29.700Z,18.88
2023-01-30T17:36:06.950Z,18.33
2023-01-30T17:37:39.007Z,19.42
2023-01-30T17:39:17.612Z,12.77
2023-01-30T17:40:51.000Z,16.60
2023-01-30T17:42:23.084Z,15.52
2023-01-30T17:43:55.021Z,27.30
2023-01-30T17:45:27.161Z,17.30
2023-01-30T17:46:59.169Z,26.02
2023-01-30T17:48:31.152Z,18.57
2023-01-30T17:50:04.276Z,22.98
2023-01-30T17:51:36.178Z,22.30
2023-01-30T17:53:08.033Z,22.20
2023-01-30T17:54:40.050Z,20.63
2023-01-30T17:56:21.363Z,23.55
2023-01-30T17:57:54.399Z,17.92
2023-01-30T17:59:26.511Z,24.00
2023-01-30T18:00:58.438Z,22.50
2023-01-30T18:02:32.364Z,19.27
2023-01-30T18:04:04.531Z,20.50
2023-01-30T18:05:36.648Z,20.00
2023-01-30T18:07:13.632Z,20.90
2023-01-30T18:08:45.806Z,29.98
2023-01-30T18:10:20.187Z,22.50
2023-01-30T18:11:52.288Z,23.80
2023-01-30T18:13:24.211Z,19.75
2023-01-30T18:14:56.100Z,21.63
2023-01-30T18:16:33.077Z,25.80
2023-01-30T18:18:05.078Z,24.35
2023-01-30T18:19:36.979Z,23.52
2023-01-30T18:21:08.958Z,25.40
2023-01-30T18:22:40.935Z,19.90
2023-01-30T18:24:13.754Z,24.33
2023-01-30T18:25:45.729Z,21.58
2023-01-30T18:27:17.918Z,12.48
2023-01-30T18:28:49.969Z,16.45
2023-01-30T18:30:24.663Z,19.27
2023-01-30T18:31:57.650Z,20.40
2023-01-30T18:35:01.465Z,34.33
2023-01-30T18:36:34.848Z,22.05
2023-01-30T18:38:06.775Z,15.45
2023-01-30T18:39:38.773Z,19.15
2023-01-30T18:41:22.678Z,19.67
2023-01-30T18:42:54.672Z,27.63
2023-01-30T18:44:26.607Z,20.83
2023-01-30T18:46:04.116Z,16.40
2023-01-30T18:47:36.065Z,25.48
2023-01-30T18:49:08.528Z,20.00
2023-01-30T18:50:40.489Z,16.05
2023-01-30T18:52:12.443Z,26.10
2023-01-30T18:53:44.585Z,20.08
2023-01-30T18:55:16.957Z,19.77
2023-01-30T18:56:48.818Z,22.02
2023-01-30T18:58:20.795Z,11.60
2023-01-30T18:59:52.780Z,20.47
2023-01-30T19:01:26.948Z,22.43
2023-01-30T19:02:59.732Z,21.05
2023-01-30T19:04:31.670Z,21.73
2023-01-30T19:06:03.927Z,23.88
2023-01-30T19:07:36.393Z,22.77
2023-01-30T19:09:08.960Z,20.80
2023-01-30T19:10:44.929Z,19.35
2023-01-30T19:12:35.268Z,13.13
2023-01-30T19:14:08.067Z,26.27
2023-01-30T19:15:40.030Z,20.92
2023-01-30T19:17:14.381Z,19.63
2023-01-30T19:18:46.531Z,13.77
2023-01-30T19:20:20.737Z,18.15
2023-01-30T19:21:54.099Z,11.55
2023-01-30T19:23:27.879Z,25.63
2023-01-30T19:24:59.858Z,13.32
2023-01-30T19:26:31.834Z,26.63
2023-01-30T19:28:04.951Z,8.25
2023-01-30T19:29:36.957Z,22.58
2023-01-30T19:31:10.081Z,19.35
2023-01-30T19:32:42.191Z,14.27
2023-01-30T19:34:14.232Z,18.03
2023-01-30T19:35:46.753Z,15.00
2023-01-30T19:37:18.706Z,10.20
2023-01-30T19:38:52.280Z,14.18
2023-01-30T19:40:26.805Z,13.63
2023-01-30T19:41:58.742Z,10.90
2023-01-30T19:43:30.828Z,12.05
2023-01-30T19:45:02.853Z,16.75
2023-01-30T19:46:35.745Z,16.13
2023-01-30T19:48:09.488Z,14.80
2023-01-30T19:49:42.439Z,16.23
2023-01-30T19:54:44.360Z,13.43
2023-01-30T19:57:49.173Z,12.98
2023-01-30T20:00:02.425Z,10.83
2023-01-30T20:01:40.103Z,16.38
2023-01-30T20:03:16.559Z,18.73
2023-01-30T20:04:48.684Z,17.63
2023-01-30T20:06:24.987Z,12.07
2023-01-30T20:08:00.150Z,20.08
2023-01-30T20:09:32.900Z,13.88
2023-01-30T20:11:17.975Z,20.10
2023-01-30T20:12:59.031Z,19.35
2023-01-30T20:14:32.370Z,16.02
2023-01-30T20:16:10.341Z,31.70
2023-01-30T20:17:42.563Z,18.05
2023-01-30T20:19:33.784Z,14.48
2023-01-30T20:21:15.536Z,20.13
2023-01-30T20:22:53.366Z,21.15
2023-01-30T20:24:35.896Z,20.70
2023-01-30T20:26:17.358Z,23.27
2023-01-30T20:27:59.967Z,15.40
2023-01-30T20:29:34.291Z,20.95
2023-01-30T20:31:21.756Z,14.93
2023-01-30T20:32:57.590Z,22.10
2023-01-30T20:34:30.007Z,18.65
2023-01-30T20:36:06.958Z,13.48
2023-01-30T20:37:39.114Z,20.73
2023-01-30T20:39:11.812Z,20.48
2023-01-30T20:40:47.907Z,23.45
2023-01-30T20:42:20.154Z,22.50
2023-01-30T20:43:56.675Z,19.38
2023-01-30T20:45:28.704Z,17.88
2023-01-30T20:47:00.857Z,30.07
2023-01-30T20:48:37.294Z,22.40
2023-01-30T20:50:11.693Z,21.48
2023-01-30T20:51:47.628Z,32.00
2023-01-30T20:53:21.782Z,23.00
2023-01-30T20:54:57.376Z,22.83
2023-01-30T20:56:37.607Z,21.92
2023-01-30T20:58:14.651Z,31.33
2023-01-30T20:59:47.053Z,24.20
2023-01-30T21:01:21.710Z,27.90
2023-01-30T21:02:53.838Z,28.75
2023-01-30T21:04:25.997Z,26.53
2023-01-30T21:06:01.573Z,22.70
2023-01-30T21:07:33.650Z,25.42
2023-01-30T21:09:06.897Z,23.47
2023-01-30T21:10:46.683Z,31.73
2023-01-30T21:12:20.173Z,22.40
2023-01-30T21:13:52.263Z,34.20
2023-01-30T21:15:24.426Z,40.77
2023-01-30T21:16:56.518Z,22.92
2023-01-30T21:18:34.696Z,21.00
2023-01-30T21:20:07.180Z,31.13
2023-01-30T21:21:42.035Z,28.45
2023-01-30T21:23:15.141Z,27.73
2023-01-30T21:24:47.220Z,28.15
2023-01-30T21:26:20.463Z,23.30
2023-01-30T21:27:52.539Z,23.75
2023-01-30T21:29:26.387Z,17.55
2023-01-30T21:31:09.564Z,24.63
2023-01-30T21:32:41.862Z,22.40
2023-01-30T21:34:14.125Z,20.77
2023-01-30T21:35:46.324Z,29.77
2023-01-30T21:37:37.918Z,30.88
2023-01-30T21:39:32.092Z,31.40
2023-01-30T21:41:22.763Z,33.40
2023-01-30T21:43:13.460Z,21.92
2023-01-30T21:44:45.552Z,17.17
2023-01-30T21:46:17.711Z,20.37
2023-01-30T21:47:52.765Z,25.35
2023-01-30T21:49:25.605Z,24.10
2023-01-30T21:50:57.986Z,26.70
2023-01-30T21:52:32.799Z,22.92
2023-01-30T21:54:04.939Z,27.23
2023-01-30T21:55:37.071Z,24.75
2023-01-30T21:57:09.170Z,30.48
2023-01-30T21:58:41.325Z,25.58
2023-01-30T22:00:13.843Z,24.55
2023-01-30T22:01:46.153Z,30.42
2023-01-30T22:03:18.262Z,27.83
2023-01-30T22:04:50.450Z,32.72
2023-01-30T22:06:22.644Z,18.98
2023-01-30T22:07:54.653Z,25.30
2023-01-30T22:09:26.668Z,25.73
2023-01-30T22:11:12.814Z,23.92
2023-01-30T22:12:45.086Z,32.05
2023-01-30T22:14:17.824Z,24.00
2023-01-30T22:15:49.836Z,22.85
2023-01-30T22:17:21.868Z,27.73
2023-01-30T22:19:00.598Z,20.47
2023-01-30T22:20:32.681Z,18.42
2023-01-30T22:22:05.177Z,23.13
2023-01-30T22:23:39.671Z,35.47
2023-01-30T22:25:11.924Z,23.33
2023-01-30T22:26:44.026Z,21.65
2023-01-30T22:28:16.113Z,35.45
2023-01-30T22:29:48.155Z,20.10
2023-01-30T22:31:20.895Z,28.77
2023-01-30T22:32:55.920Z,23.23
2023-01-30T22:34:27.936Z,23.92
2023-01-30T22:36:00.901Z,23.10
2023-01-30T22:39:06.154Z,22.38
2023-01-30T22:40:38.611Z,25.48
2023-01-30T22:42:11.028Z,28.88
2023-01-30T22:43:51.165Z,22.85
2023-01-30T22:45:23.162Z,16.05
2023-01-30T22:46:55.252Z,23.65
2023-01-30T22:48:28.689Z,19.00
2023-01-30T22:50:00.810Z,22.95
2023-01-30T22:51:38.471Z,23.45
2023-01-30T22:53:10.466Z,17.88
2023-01-30T22:54:42.471Z,25.23
2023-01-30T22:56:16.871Z,24.33
2023-01-30T22:57:49.083Z,17.60
2023-01-30T22:59:22.066Z,19.30
2023-01-30T23:00:55.724Z,30.77
2023-01-30T23:02:27.915Z,25.13
2023-01-30T23:04:02.355Z,29.05
2023-01-30T23:05:34.516Z,33.95
2023-01-30T23:07:06.554Z,36.67
2023-01-30T23:08:40.617Z,22.33
2023-01-30T23:10:12.784Z,21.02
2023-01-30T23:12:10.864Z,26.38
2023-01-30T23:13:44.676Z,24.02
2023-01-30T23:15:17.025Z,22.70
2023-01-30T23:16:49.382Z,20.30
2023-01-30T23:18:40.246Z,23.58
2023-01-30T23:20:12.567Z,27.25
2023-01-30T23:21:46.292Z,25.00
2023-01-30T23:23:18.266Z,24.50
2023-01-30T23:24:51.483Z,19.23
2023-01-30T23:26:25.158Z,20.08
2023-01-30T23:27:57.196Z,18.35
2023-01-30T23:29:29.477Z,23.67
2023-01-30T23:31:16.948Z,22.52
2023-01-30T23:32:48.959Z,19.40
2023-01-30T23:34:20.950Z,19.90
2023-01-30T23:35:52.891Z,26.27
2023-01-30T23:37:44.874Z,15.30
2023-01-30T23:39:17.395Z,14.57
2023-01-30T23:40:49.756Z,35.97
2023-01-30T23:42:22.389Z,19.00
2023-01-30T23:43:55.262Z,27.60
2023-01-30T23:45:30.132Z,27.80
2023-01-30T23:47:02.223Z,25.25
2023-01-30T23:48:34.247Z,30.40
2023-01-30T23:50:06.570Z,18.65
2023-01-30T23:51:40.441Z,24.27
2023-01-30T23:53:12.492Z,16.30
2023-01-30T23:54:45.005Z,27.23
2023-01-30T23:56:18.386Z,17.17
2023-01-30T23:57:50.720Z,16.92
2023-01-30T23:59:22.862Z,20.55
